Time;durP1;ratioP1;P1;durP2;ratioP2;P2;SDS_P1;SDS_P2;PMS_P1;PMS_P2;Temp;Humidity;BMP_temperature;BMP_pressure;BME280_temperature;BME280_humidity;BME280_pressure;Samples;Min_cycle;Max_cycle;Signal;HPM_P1;HPM_P2
2023/01/23 00:09:07;;;;;;;15.93;11.50;;;;;;;3.37;65.44;102281.28;20925965;28;20246;-85
2023/01/23 00:19:09;;;;;;;14.33;10.97;;;;;;;3.57;64.05;102273.72;20909418;28;20192;-84
2023/01/23 00:29:14;;;;;;;13.87;11.90;;;;;;;3.75;64.42;102280.44;20910023;28;20284;-83
2023/01/23 00:39:18;;;;;;;13.23;10.37;;;;;;;4.11;63.16;102286.19;20923400;28;20516;-87
2023/01/23 00:49:20;;;;;;;15.20;11.67;;;;;;;4.00;63.94;102284.13;20964595;28;20238;-87
2023/01/23 00:59:25;;;;;;;14.53;10.90;;;;;;;4.04;64.19;102285.41;20911398;28;20249;-87
2023/01/23 01:09:27;;;;;;;12.23;9.93;;;;;;;4.09;63.34;102299.44;20938471;28;20231;-87
2023/01/23 01:19:30;;;;;;;13.13;10.17;;;;;;;3.87;64.02;102306.44;20914208;28;20261;-84
2023/01/23 01:29:32;;;;;;;11.73;9.87;;;;;;;3.61;65.21;102307.41;20926163;28;20268;-85
2023/01/23 01:39:34;;;;;;;12.07;9.50;;;;;;;3.82;64.36;102315.44;20906961;28;20513;-84
2023/01/23 01:49:37;;;;;;;12.57;10.37;;;;;;;3.76;64.28;102302.44;20977378;28;20303;-84
2023/01/23 01:59:47;;;;;;;13.80;11.03;;;;;;;4.39;61.80;102318.25;20931010;28;20509;-86
2023/01/23 02:09:49;;;;;;;13.10;10.67;;;;;;;4.51;61.50;102320.06;20890688;28;20579;-84
2023/01/23 02:20:16;;;;;;;14.73;11.03;;;;;;;4.24;63.02;102322.19;20905586;28;20551;-87
2023/01/23 02:30:20;;;;;;;13.40;10.97;;;;;;;4.17;63.62;102326.13;20917258;28;20588;-87
2023/01/23 02:40:39;;;;;;;16.10;11.40;;;;;;;3.83;64.89;102332.91;20935635;28;20238;-88
2023/01/23 02:50:45;;;;;;;17.00;10.97;;;;;;;4.11;64.25;102329.78;20918542;28;20188;-85
2023/01/23 03:00:47;;;;;;;16.50;11.73;;;;;;;4.05;63.25;102336.22;20918549;28;20250;-85
2023/01/23 03:10:49;;;;;;;16.83;12.40;;;;;;;3.63;65.99;102323.84;20946847;28;20697;-86
2023/01/23 03:20:52;;;;;;;16.20;12.00;;;;;;;3.18;66.82;102332.06;20928072;28;20211;-86
2023/01/23 03:30:57;;;;;;;18.03;12.73;;;;;;;3.85;65.30;102336.31;20980412;28;20192;-85
2023/01/23 03:51:21;;;;;;;18.23;12.57;;;;;;;3.73;65.74;102332.56;20926361;28;20184;-85
2023/01/23 04:01:24;;;;;;;16.17;12.03;;;;;;;4.23;63.52;102339.94;20909592;28;20204;-83
2023/01/23 04:11:27;;;;;;;15.03;11.20;;;;;;;3.98;63.90;102346.50;20935177;28;20975;-85
2023/01/23 04:21:30;;;;;;;16.10;12.37;;;;;;;3.39;65.98;102365.13;20927277;28;20237;-84
2023/01/23 04:31:32;;;;;;;16.20;11.30;;;;;;;3.85;64.90;102372.41;20909309;28;20554;-83
2023/01/23 04:41:35;;;;;;;16.03;11.97;;;;;;;3.75;64.74;102361.78;20924505;28;20636;-83
2023/01/23 04:51:47;;;;;;;15.43;11.37;;;;;;;3.39;67.14;102359.59;20919549;28;20281;-82
2023/01/23 05:01:50;;;;;;;18.00;12.63;;;;;;;3.83;65.18;102352.34;20934355;28;20211;-83
2023/01/23 05:11:53;;;;;;;16.17;12.57;;;;;;;3.21;66.82;102351.91;20984013;28;20211;-87
2023/01/23 05:21:58;;;;;;;13.83;11.47;;;;;;;3.36;65.44;102343.38;20967406;28;20218;-83
2023/01/23 05:32:00;;;;;;;16.57;10.80;;;;;;;3.76;64.46;102357.09;20982007;28;20211;-83
2023/01/23 05:42:12;;;;;;;14.60;11.07;;;;;;;3.85;63.27;102364.09;20949599;28;20269;-85
2023/01/23 05:52:34;;;;;;;16.37;11.63;;;;;;;3.41;65.55;102390.75;21001933;28;20575;-85
2023/01/23 06:02:37;;;;;;;17.57;12.00;;;;;;;3.81;64.35;102385.06;20914423;28;20219;-85
2023/01/23 06:13:15;;;;;;;16.43;12.17;;;;;;;3.72;65.15;102392.75;20895827;28;20332;-84
2023/01/23 06:23:17;;;;;;;19.07;12.27;;;;;;;4.15;63.68;102397.69;20886952;28;20293;-85
2023/01/23 06:33:20;;;;;;;18.47;13.23;;;;;;;3.73;64.39;102410.25;20885795;28;20241;-85
2023/01/23 06:43:24;;;;;;;17.83;12.17;;;;;;;3.58;66.03;102430.78;20924875;28;20649;-86
2023/01/23 06:53:28;;;;;;;16.70;12.03;;;;;;;4.11;64.09;102446.41;20915985;28;20188;-83
2023/01/23 07:03:31;;;;;;;16.60;11.60;;;;;;;4.11;64.49;102451.97;20902676;28;20639;-87
2023/01/23 07:13:33;;;;;;;18.87;12.87;;;;;;;3.67;65.98;102450.84;20948710;28;20200;-86
2023/01/23 07:23:36;;;;;;;17.63;11.93;;;;;;;4.19;63.76;102465.63;20901962;28;20689;-83
2023/01/23 07:33:38;;;;;;;17.50;11.63;;;;;;;3.54;66.12;102496.13;20909268;28;20261;-83
2023/01/23 07:43:40;;;;;;;16.43;11.40;;;;;;;3.60;66.08;102497.19;20930707;28;20235;-83
2023/01/23 07:53:42;;;;;;;15.40;11.47;;;;;;;3.53;65.13;102499.97;20951264;28;20225;-83
2023/01/23 08:03:45;;;;;;;14.63;11.60;;;;;;;3.60;65.14;102506.34;20952956;28;20281;-82
2023/01/23 08:13:48;;;;;;;16.20;10.93;;;;;;;3.96;63.83;102510.53;20915701;28;20217;-83
2023/01/23 08:23:51;;;;;;;14.80;10.43;;;;;;;4.01;64.10;102512.66;20920083;28;20780;-83
2023/01/23 08:33:54;;;;;;;13.57;9.23;;;;;;;3.62;63.58;102510.84;20926669;28;20212;-84
2023/01/23 08:44:00;;;;;;;12.83;9.40;;;;;;;3.99;62.47;102510.13;20963962;28;20789;-83
2023/01/23 08:54:02;;;;;;;10.97;8.43;;;;;;;3.79;63.35;102517.66;20935101;28;20191;-86
2023/01/23 09:04:05;;;;;;;11.47;8.77;;;;;;;3.60;63.62;102531.34;20914522;28;20227;-83
2023/01/23 09:14:07;;;;;;;10.30;7.93;;;;;;;4.02;62.50;102531.91;20920131;28;20265;-84
2023/01/23 09:24:09;;;;;;;10.77;7.90;;;;;;;4.27;61.58;102535.66;20902494;28;20224;-84
2023/01/23 09:34:11;;;;;;;9.97;8.00;;;;;;;4.08;61.99;102531.03;20904485;28;20312;-86
2023/01/23 09:44:34;;;;;;;10.93;8.10;;;;;;;4.24;58.93;102541.63;20902536;28;20212;-84
2023/01/23 09:54:47;;;;;;;10.37;7.27;;;;;;;4.52;59.93;102549.66;20964731;28;20499;-85
2023/01/23 10:04:51;;;;;;;9.60;7.10;;;;;;;4.51;59.29;102547.09;20933706;28;20231;-83
2023/01/23 10:15:10;;;;;;;8.73;7.17;;;;;;;4.16;61.49;102560.47;20912426;28;20214;-85
2023/01/23 10:25:19;;;;;;;7.17;6.30;;;;;;;4.70;57.92;102559.19;20936879;28;20246;-86
2023/01/23 10:35:38;;;;;;;8.47;7.00;;;;;;;4.13;58.98;102567.31;20938962;28;20613;-84
2023/01/23 10:45:41;;;;;;;9.50;6.87;;;;;;;4.85;58.98;102566.19;20964498;28;20449;-84
2023/01/23 10:55:44;;;;;;;9.87;7.47;;;;;;;4.19;61.44;102563.69;20942027;28;20214;-84
2023/01/23 11:05:51;;;;;;;9.63;7.67;;;;;;;4.55;59.59;102549.22;20924098;28;20228;-84
2023/01/23 11:15:54;;;;;;;9.83;7.83;;;;;;;5.32;58.27;102527.78;20915356;28;20204;-84
2023/01/23 11:25:58;;;;;;;9.87;8.30;;;;;;;4.74;59.56;102527.09;20930165;28;20227;-84
2023/01/23 11:36:27;;;;;;;9.77;7.90;;;;;;;5.17;58.93;102513.31;20924048;28;20285;-84
2023/01/23 11:46:42;;;;;;;10.30;8.37;;;;;;;4.23;60.08;102528.81;20905001;28;20368;-84
2023/01/23 11:56:55;;;;;;;10.07;8.07;;;;;;;5.01;58.78;102520.28;20961371;28;20196;-85
2023/01/23 12:07:19;;;;;;;10.33;7.33;;;;;;;4.91;58.94;102519.91;20941219;28;20619;-86
2023/01/23 12:17:47;;;;;;;10.30;7.90;;;;;;;5.16;57.90;102506.03;20913522;28;20195;-84
2023/01/23 12:27:59;;;;;;;11.40;8.53;;;;;;;5.11;58.86;102514.22;20915985;28;20220;-85
2023/01/23 12:38:17;;;;;;;11.40;8.83;;;;;;;5.24;57.75;102519.72;20909756;28;20222;-85
2023/01/23 12:48:31;;;;;;;10.70;8.67;;;;;;;4.29;60.65;102527.97;20936859;28;20262;-85
2023/01/23 12:58:36;;;;;;;10.73;8.47;;;;;;;4.87;57.27;102525.06;20953229;28;20199;-85
2023/01/23 13:08:48;;;;;;;11.47;9.60;;;;;;;5.11;58.08;102520.66;20946104;28;20636;-84
2023/01/23 13:29:48;;;;;;;11.20;9.43;;;;;;;5.40;56.68;102524.69;20922564;28;20214;-86
2023/01/23 13:40:12;;;;;;;11.93;9.33;;;;;;;4.82;57.47;102533.25;20937868;28;20652;-85
2023/01/23 13:50:27;;;;;;;10.83;8.17;;;;;;;5.02;56.83;102533.97;20921063;28;20242;-88
2023/01/23 14:11:37;;;;;;;11.47;9.00;;;;;;;4.82;57.99;102538.81;20383186;29;20573;-86
2023/01/23 14:21:55;;;;;;;11.63;8.50;;;;;;;4.55;58.61;102551.16;20360793;28;20285;-83
2023/01/23 14:31:59;;;;;;;11.47;8.77;;;;;;;5.60;56.69;102542.09;20641234;28;20189;-83
2023/01/23 14:42:02;;;;;;;11.30;8.83;;;;;;;5.30;56.61;102552.19;20841328;28;20563;-85
2023/01/23 14:52:16;;;;;;;10.33;7.80;;;;;;;4.76;57.64;102561.94;20954481;28;20854;-87
2023/01/23 15:02:25;;;;;;;10.53;8.63;;;;;;;5.28;56.59;102554.34;20909307;28;20223;-86
2023/01/23 15:12:27;;;;;;;11.33;9.00;;;;;;;4.61;59.76;102565.00;20909943;28;20227;-84
2023/01/23 15:22:31;;;;;;;10.80;8.10;;;;;;;5.06;56.83;102555.75;20939248;28;20265;-85
2023/01/23 15:32:33;;;;;;;10.43;8.27;;;;;;;5.55;56.00;102561.41;20944525;28;20210;-86
2023/01/23 15:42:38;;;;;;;10.27;8.17;;;;;;;4.83;58.01;102557.19;20990655;27;20260;-86
2023/01/23 15:52:47;;;;;;;11.00;9.00;;;;;;;5.16;56.84;102573.66;20932437;28;20250;-88
2023/01/23 16:02:51;;;;;;;12.30;8.67;;;;;;;4.75;58.54;102565.78;20924193;28;20259;-83
2023/01/23 16:12:58;;;;;;;10.87;8.57;;;;;;;4.78;58.56;102558.94;20915217;28;20252;-85
2023/01/23 16:23:04;;;;;;;10.03;8.07;;;;;;;4.34;58.70;102545.91;20907987;28;20208;-83
2023/01/23 16:33:15;;;;;;;9.07;7.80;;;;;;;4.22;59.68;102543.78;20938936;28;20883;-85
2023/01/23 16:43:19;;;;;;;11.23;8.10;;;;;;;4.69;57.64;102522.22;20913195;28;20758;-85
2023/01/23 16:53:28;;;;;;;10.57;8.10;;;;;;;5.12;55.83;102543.75;20901014;28;20195;-84
2023/01/23 17:03:33;;;;;;;11.07;8.70;;;;;;;4.83;56.69;102540.50;20927214;28;20227;-85
2023/01/23 17:13:35;;;;;;;9.90;8.03;;;;;;;4.76;56.21;102544.38;20913767;28;20217;-85
2023/01/23 17:23:37;;;;;;;9.63;7.97;;;;;;;5.13;56.51;102551.00;20931681;28;20200;-85
2023/01/23 17:33:40;;;;;;;9.10;7.97;;;;;;;5.14;56.08;102548.00;20883484;28;20348;-85
2023/01/23 17:43:43;;;;;;;9.53;8.13;;;;;;;4.47;57.15;102551.41;20896261;28;20247;-84
2023/01/23 17:53:46;;;;;;;12.10;8.90;;;;;;;5.22;55.35;102547.78;20905768;28;20261;-84
2023/01/23 18:03:49;;;;;;;10.57;7.87;;;;;;;4.18;58.35;102534.19;20929408;28;20292;-83
2023/01/23 18:14:14;;;;;;;12.77;8.73;;;;;;;4.74;57.71;102550.16;20938173;28;20218;-84
2023/01/23 18:24:23;;;;;;;11.73;8.20;;;;;;;4.91;56.34;102544.94;20888045;28;20267;-83
2023/01/23 18:34:49;;;;;;;12.73;9.37;;;;;;;4.87;57.57;102538.97;20922602;28;20276;-84
2023/01/23 18:44:55;;;;;;;9.50;8.50;;;;;;;4.97;56.95;102547.69;20901308;28;20276;-84
2023/01/23 18:55:13;;;;;;;20.77;9.70;;;;;;;4.70;57.86;102554.50;20950108;28;20199;-83
2023/01/23 19:05:30;;;;;;;10.80;9.07;;;;;;;4.97;55.85;102556.03;20920600;28;20261;-83
2023/01/23 19:16:07;;;;;;;12.87;10.00;;;;;;;4.86;56.51;102572.59;20937225;28;20534;-83
2023/01/23 19:26:13;;;;;;;11.63;8.87;;;;;;;4.85;56.84;102582.84;20930848;28;20256;-85
2023/01/23 19:36:16;;;;;;;11.00;8.73;;;;;;;4.63;58.44;102589.78;20917796;28;20215;-85
2023/01/23 19:46:20;;;;;;;11.10;8.77;;;;;;;4.97;56.01;102597.75;20930665;28;20628;-87
2023/01/23 19:56:23;;;;;;;12.47;9.20;;;;;;;4.75;56.98;102609.41;20958365;28;20273;-83
2023/01/23 20:06:26;;;;;;;11.17;8.40;;;;;;;4.87;56.45;102607.63;20919108;28;20256;-85
2023/01/23 20:16:28;;;;;;;11.37;9.07;;;;;;;4.60;57.49;102612.50;20898712;28;20219;-87
2023/01/23 20:26:30;;;;;;;9.50;8.50;;;;;;;4.81;57.85;102625.22;20901250;28;20265;-86
2023/01/23 20:36:32;;;;;;;10.20;9.03;;;;;;;5.42;54.99;102611.59;20921038;28;20215;-85
2023/01/23 20:46:35;;;;;;;13.23;9.40;;;;;;;5.13;56.46;102632.53;20915089;28;20265;-86
2023/01/23 20:56:37;;;;;;;13.83;10.37;;;;;;;5.38;55.69;102611.22;20892898;28;20549;-86
2023/01/23 21:06:40;;;;;;;12.77;9.77;;;;;;;4.56;58.63;102625.97;20923134;28;20223;-86
2023/01/23 21:16:42;;;;;;;12.93;10.17;;;;;;;4.88;57.85;102604.63;20881231;28;20196;-86
2023/01/23 21:26:44;;;;;;;11.77;9.20;;;;;;;4.38;59.05;102603.56;20891013;28;20253;-85
2023/01/23 21:36:46;;;;;;;10.57;8.33;;;;;;;4.86;57.14;102609.59;20926125;28;20212;-86
2023/01/23 21:46:50;;;;;;;11.90;8.23;;;;;;;4.42;58.85;102615.09;20912294;28;20227;-85
2023/01/23 21:56:52;;;;;;;9.33;7.57;;;;;;;4.96;56.93;102612.75;20927373;28;20209;-86
2023/01/23 22:06:57;;;;;;;10.87;7.87;;;;;;;4.57;58.15;102624.03;20920521;28;20258;-85
2023/01/23 22:16:59;;;;;;;8.43;7.33;;;;;;;4.39;58.09;102608.06;20917993;28;20437;-85
2023/01/23 22:27:02;;;;;;;10.70;7.20;;;;;;;4.41;58.58;102603.13;20923248;28;20222;-86
2023/01/23 22:37:05;;;;;;;8.07;6.93;;;;;;;4.60;57.42;102602.22;20909707;28;20528;-86
2023/01/23 22:47:07;;;;;;;8.43;7.53;;;;;;;3.69;58.95;102609.69;20916906;28;20781;-86
2023/01/23 22:57:09;;;;;;;7.93;6.50;;;;;;;4.13;57.77;102599.78;20930150;28;20636;-86
2023/01/23 23:07:12;;;;;;;9.40;7.70;;;;;;;4.01;59.22;102616.28;20947949;28;20527;-85
2023/01/23 23:17:14;;;;;;;7.93;6.90;;;;;;;4.84;56.57;102608.97;20932887;28;20547;-86
2023/01/23 23:27:16;;;;;;;9.27;7.33;;;;;;;5.11;54.96;102603.25;20914923;28;20695;-86
2023/01/23 23:37:19;;;;;;;9.13;7.83;;;;;;;4.50;56.32;102598.19;20928707;28;20216;-86
2023/01/23 23:47:21;;;;;;;7.13;6.13;;;;;;;4.72;55.60;102610.72;20914298;28;20262;-86
2023/01/23 23:57:23;;;;;;;8.33;6.40;;;;;;;3.70;59.75;102621.66;20928128;28;20286;-86
